sensor_id;sensor_type;location;lat;lon;timestamp;P1;durP1;ratioP1;P2;durP2;ratioP2
6973;SDS011;3527;52.376;8.990;2023-04-28T00:00:30;7.10;;;4.20;;
6973;SDS011;3527;52.376;8.990;2023-04-28T00:02:57;6.47;;;4.17;;
6973;SDS011;3527;52.376;8.990;2023-04-28T00:05:24;7.80;;;4.30;;
6973;SDS011;3527;52.376;8.990;2023-04-28T00:07:52;6.50;;;4.17;;
6973;SDS011;3527;52.376;8.990;2023-04-28T00:10:18;5.90;;;4.57;;
6973;SDS011;3527;52.376;8.990;2023-04-28T00:12:45;5.30;;;3.67;;
6973;SDS011;3527;52.376;8.990;2023-04-28T00:15:12;5.40;;;4.10;;
6973;SDS011;3527;52.376;8.990;2023-04-28T00:17:39;6.33;;;4.17;;
6973;SDS011;3527;52.376;8.990;2023-04-28T00:20:06;6.93;;;4.13;;
6973;SDS011;3527;52.376;8.990;2023-04-28T00:22:33;7.83;;;4.53;;
6973;SDS011;3527;52.376;8.990;2023-04-28T00:25:00;8.03;;;4.60;;
6973;SDS011;3527;52.376;8.990;2023-04-28T00:27:27;5.30;;;3.67;;
6973;SDS011;3527;52.376;8.990;2023-04-28T00:29:53;5.17;;;3.90;;
6973;SDS011;3527;52.376;8.990;2023-04-28T00:32:20;5.63;;;4.37;;
6973;SDS011;3527;52.376;8.990;2023-04-28T00:34:47;9.00;;;4.43;;
6973;SDS011;3527;52.376;8.990;2023-04-28T00:37:14;7.67;;;4.40;;
6973;SDS011;3527;52.376;8.990;2023-04-28T00:39:41;7.93;;;3.93;;
6973;SDS011;3527;52.376;8.990;2023-04-28T00:42:07;5.43;;;4.13;;
6973;SDS011;3527;52.376;8.990;2023-04-28T00:44:34;6.30;;;4.17;;
6973;SDS011;3527;52.376;8.990;2023-04-28T00:47:01;7.00;;;4.33;;
6973;SDS011;3527;52.376;8.990;2023-04-28T00:49:28;10.70;;;4.60;;
6973;SDS011;3527;52.376;8.990;2023-04-28T00:51:55;7.67;;;4.70;;
6973;SDS011;3527;52.376;8.990;2023-04-28T00:54:23;8.73;;;4.67;;
6973;SDS011;3527;52.376;8.990;2023-04-28T00:56:49;7.10;;;4.17;;
6973;SDS011;3527;52.376;8.990;2023-04-28T00:59:17;6.70;;;4.20;;
6973;SDS011;3527;52.376;8.990;2023-04-28T01:01:43;6.33;;;4.40;;
6973;SDS011;3527;52.376;8.990;2023-04-28T01:04:10;6.27;;;4.50;;
6973;SDS011;3527;52.376;8.990;2023-04-28T01:06:38;7.03;;;4.03;;
6973;SDS011;3527;52.376;8.990;2023-04-28T01:09:07;6.63;;;3.80;;
6973;SDS011;3527;52.376;8.990;2023-04-28T01:11:33;5.67;;;4.20;;
6973;SDS011;3527;52.376;8.990;2023-04-28T01:14:00;6.83;;;3.97;;
6973;SDS011;3527;52.376;8.990;2023-04-28T01:16:27;6.73;;;3.93;;
6973;SDS011;3527;52.376;8.990;2023-04-28T01:18:54;7.50;;;4.27;;
6973;SDS011;3527;52.376;8.990;2023-04-28T01:21:30;8.37;;;4.20;;
6973;SDS011;3527;52.376;8.990;2023-04-28T01:23:58;6.47;;;4.07;;
6973;SDS011;3527;52.376;8.990;2023-04-28T01:26:25;7.80;;;4.37;;
6973;SDS011;3527;52.376;8.990;2023-04-28T01:28:52;6.27;;;4.10;;
6973;SDS011;3527;52.376;8.990;2023-04-28T01:31:19;7.10;;;4.07;;
6973;SDS011;3527;52.376;8.990;2023-04-28T01:33:46;6.67;;;3.83;;
6973;SDS011;3527;52.376;8.990;2023-04-28T01:36:12;6.10;;;3.87;;
6973;SDS011;3527;52.376;8.990;2023-04-28T01:38:39;7.53;;;4.13;;
6973;SDS011;3527;52.376;8.990;2023-04-28T01:41:06;13.23;;;3.97;;
6973;SDS011;3527;52.376;8.990;2023-04-28T01:43:32;7.27;;;4.13;;
6973;SDS011;3527;52.376;8.990;2023-04-28T01:45:59;6.20;;;4.07;;
6973;SDS011;3527;52.376;8.990;2023-04-28T01:48:26;8.80;;;3.70;;
6973;SDS011;3527;52.376;8.990;2023-04-28T01:50:53;6.60;;;3.70;;
6973;SDS011;3527;52.376;8.990;2023-04-28T01:53:19;8.13;;;4.10;;
6973;SDS011;3527;52.376;8.990;2023-04-28T01:55:46;6.40;;;4.30;;
6973;SDS011;3527;52.376;8.990;2023-04-28T01:58:13;6.03;;;3.83;;
6973;SDS011;3527;52.376;8.990;2023-04-28T02:00:39;4.43;;;3.70;;
6973;SDS011;3527;52.376;8.990;2023-04-28T02:03:06;7.80;;;4.83;;
6973;SDS011;3527;52.376;8.990;2023-04-28T02:05:33;6.73;;;4.10;;
6973;SDS011;3527;52.376;8.990;2023-04-28T02:08:00;7.77;;;4.07;;
6973;SDS011;3527;52.376;8.990;2023-04-28T02:10:26;6.67;;;4.17;;
6973;SDS011;3527;52.376;8.990;2023-04-28T02:12:53;6.97;;;4.10;;
6973;SDS011;3527;52.376;8.990;2023-04-28T02:15:20;10.47;;;4.57;;
6973;SDS011;3527;52.376;8.990;2023-04-28T02:17:47;8.50;;;4.60;;
6973;SDS011;3527;52.376;8.990;2023-04-28T02:20:14;6.77;;;4.43;;
6973;SDS011;3527;52.376;8.990;2023-04-28T02:22:41;7.27;;;3.77;;
6973;SDS011;3527;52.376;8.990;2023-04-28T02:25:07;6.83;;;4.57;;
6973;SDS011;3527;52.376;8.990;2023-04-28T02:27:35;8.33;;;4.60;;
6973;SDS011;3527;52.376;8.990;2023-04-28T02:30:04;7.23;;;4.60;;
6973;SDS011;3527;52.376;8.990;2023-04-28T02:32:32;6.97;;;4.93;;
6973;SDS011;3527;52.376;8.990;2023-04-28T02:34:59;6.10;;;4.10;;
6973;SDS011;3527;52.376;8.990;2023-04-28T02:37:25;9.37;;;5.27;;
6973;SDS011;3527;52.376;8.990;2023-04-28T02:39:52;7.07;;;4.97;;
6973;SDS011;3527;52.376;8.990;2023-04-28T02:42:19;8.87;;;4.90;;
6973;SDS011;3527;52.376;8.990;2023-04-28T02:44:46;7.63;;;4.77;;
6973;SDS011;3527;52.376;8.990;2023-04-28T02:47:12;8.43;;;4.83;;
6973;SDS011;3527;52.376;8.990;2023-04-28T02:49:39;8.47;;;5.07;;
6973;SDS011;3527;52.376;8.990;2023-04-28T02:52:06;7.13;;;4.97;;
6973;SDS011;3527;52.376;8.990;2023-04-28T02:54:33;5.93;;;4.40;;
6973;SDS011;3527;52.376;8.990;2023-04-28T02:57:02;7.57;;;4.60;;
6973;SDS011;3527;52.376;8.990;2023-04-28T02:59:29;7.87;;;4.70;;
6973;SDS011;3527;52.376;8.990;2023-04-28T03:01:56;7.80;;;5.33;;
6973;SDS011;3527;52.376;8.990;2023-04-28T03:04:23;8.90;;;5.37;;
6973;SDS011;3527;52.376;8.990;2023-04-28T03:06:50;7.37;;;5.10;;
6973;SDS011;3527;52.376;8.990;2023-04-28T03:09:17;6.73;;;5.23;;
6973;SDS011;3527;52.376;8.990;2023-04-28T03:11:44;7.73;;;5.30;;
6973;SDS011;3527;52.376;8.990;2023-04-28T03:14:10;8.30;;;5.67;;
6973;SDS011;3527;52.376;8.990;2023-04-28T03:16:37;5.20;;;4.70;;
6973;SDS011;3527;52.376;8.990;2023-04-28T03:19:04;8.87;;;5.73;;
6973;SDS011;3527;52.376;8.990;2023-04-28T03:21:31;9.23;;;5.73;;
6973;SDS011;3527;52.376;8.990;2023-04-28T03:23:58;9.73;;;5.80;;
6973;SDS011;3527;52.376;8.990;2023-04-28T03:26:25;7.37;;;5.30;;
6973;SDS011;3527;52.376;8.990;2023-04-28T03:28:51;9.33;;;5.47;;
6973;SDS011;3527;52.376;8.990;2023-04-28T03:31:18;8.17;;;4.93;;
6973;SDS011;3527;52.376;8.990;2023-04-28T03:33:45;10.60;;;5.17;;
6973;SDS011;3527;52.376;8.990;2023-04-28T03:36:12;7.10;;;4.63;;
6973;SDS011;3527;52.376;8.990;2023-04-28T03:38:39;6.53;;;5.00;;
6973;SDS011;3527;52.376;8.990;2023-04-28T03:41:06;8.20;;;4.80;;
6973;SDS011;3527;52.376;8.990;2023-04-28T03:43:33;7.20;;;4.83;;
6973;SDS011;3527;52.376;8.990;2023-04-28T03:46:05;7.43;;;4.97;;
6973;SDS011;3527;52.376;8.990;2023-04-28T03:48:32;7.50;;;4.67;;
6973;SDS011;3527;52.376;8.990;2023-04-28T03:50:59;11.13;;;5.00;;
6973;SDS011;3527;52.376;8.990;2023-04-28T03:53:25;9.10;;;4.80;;
6973;SDS011;3527;52.376;8.990;2023-04-28T03:55:52;7.43;;;5.37;;
6973;SDS011;3527;52.376;8.990;2023-04-28T03:58:19;7.03;;;4.57;;
6973;SDS011;3527;52.376;8.990;2023-04-28T04:00:46;7.10;;;5.33;;
6973;SDS011;3527;52.376;8.990;2023-04-28T04:03:12;7.27;;;4.87;;
6973;SDS011;3527;52.376;8.990;2023-04-28T04:05:39;6.93;;;4.93;;
6973;SDS011;3527;52.376;8.990;2023-04-28T04:08:06;8.13;;;5.20;;
6973;SDS011;3527;52.376;8.990;2023-04-28T04:10:33;6.97;;;4.90;;
6973;SDS011;3527;52.376;8.990;2023-04-28T04:13:00;7.73;;;4.93;;
6973;SDS011;3527;52.376;8.990;2023-04-28T04:15:47;7.60;;;4.70;;
6973;SDS011;3527;52.376;8.990;2023-04-28T04:18:35;8.33;;;5.17;;
6973;SDS011;3527;52.376;8.990;2023-04-28T04:21:21;6.33;;;4.87;;
6973;SDS011;3527;52.376;8.990;2023-04-28T04:24:08;8.90;;;5.23;;
6973;SDS011;3527;52.376;8.990;2023-04-28T04:26:55;8.53;;;5.80;;
6973;SDS011;3527;52.376;8.990;2023-04-28T04:29:41;9.60;;;5.40;;
6973;SDS011;3527;52.376;8.990;2023-04-28T04:32:22;8.30;;;5.70;;
6973;SDS011;3527;52.376;8.990;2023-04-28T04:34:54;9.23;;;5.60;;
6973;SDS011;3527;52.376;8.990;2023-04-28T04:37:41;10.87;;;5.33;;
6973;SDS011;3527;52.376;8.990;2023-04-28T04:40:27;9.80;;;5.33;;
6973;SDS011;3527;52.376;8.990;2023-04-28T04:43:13;9.47;;;5.30;;
6973;SDS011;3527;52.376;8.990;2023-04-28T04:45:40;8.37;;;5.70;;
6973;SDS011;3527;52.376;8.990;2023-04-28T04:48:06;9.00;;;5.30;;
6973;SDS011;3527;52.376;8.990;2023-04-28T04:50:33;9.37;;;5.50;;
6973;SDS011;3527;52.376;8.990;2023-04-28T04:53:00;8.83;;;5.60;;
6973;SDS011;3527;52.376;8.990;2023-04-28T04:55:27;10.30;;;5.90;;
6973;SDS011;3527;52.376;8.990;2023-04-28T04:57:53;6.90;;;5.43;;
6973;SDS011;3527;52.376;8.990;2023-04-28T05:00:20;11.60;;;6.03;;
6973;SDS011;3527;52.376;8.990;2023-04-28T05:02:47;9.87;;;6.00;;
6973;SDS011;3527;52.376;8.990;2023-04-28T05:05:14;8.33;;;5.73;;
6973;SDS011;3527;52.376;8.990;2023-04-28T05:07:47;10.33;;;6.17;;
6973;SDS011;3527;52.376;8.990;2023-04-28T05:10:14;8.77;;;5.37;;
6973;SDS011;3527;52.376;8.990;2023-04-28T05:12:41;8.60;;;5.40;;
6973;SDS011;3527;52.376;8.990;2023-04-28T05:15:13;7.33;;;5.27;;
6973;SDS011;3527;52.376;8.990;2023-04-28T05:17:40;8.87;;;5.33;;
6973;SDS011;3527;52.376;8.990;2023-04-28T05:20:07;7.97;;;6.00;;
6973;SDS011;3527;52.376;8.990;2023-04-28T05:22:36;9.50;;;5.80;;
6973;SDS011;3527;52.376;8.990;2023-04-28T05:25:03;9.20;;;5.23;;
6973;SDS011;3527;52.376;8.990;2023-04-28T05:27:30;9.37;;;5.40;;
6973;SDS011;3527;52.376;8.990;2023-04-28T05:29:56;6.73;;;5.30;;
6973;SDS011;3527;52.376;8.990;2023-04-28T05:32:25;10.07;;;6.27;;
6973;SDS011;3527;52.376;8.990;2023-04-28T05:34:51;9.97;;;6.20;;
6973;SDS011;3527;52.376;8.990;2023-04-28T05:37:18;10.53;;;5.80;;
6973;SDS011;3527;52.376;8.990;2023-04-28T05:39:45;9.10;;;5.67;;
6973;SDS011;3527;52.376;8.990;2023-04-28T05:42:12;10.63;;;6.23;;
6973;SDS011;3527;52.376;8.990;2023-04-28T05:44:38;7.47;;;5.57;;
6973;SDS011;3527;52.376;8.990;2023-04-28T05:47:08;9.90;;;5.93;;
6973;SDS011;3527;52.376;8.990;2023-04-28T05:49:35;9.73;;;5.87;;
6973;SDS011;3527;52.376;8.990;2023-04-28T05:52:02;10.30;;;5.97;;
6973;SDS011;3527;52.376;8.990;2023-04-28T05:54:29;10.03;;;6.03;;
6973;SDS011;3527;52.376;8.990;2023-04-28T05:56:56;12.37;;;5.80;;
6973;SDS011;3527;52.376;8.990;2023-04-28T05:59:26;8.03;;;6.37;;
6973;SDS011;3527;52.376;8.990;2023-04-28T06:01:53;11.03;;;6.30;;
6973;SDS011;3527;52.376;8.990;2023-04-28T06:04:20;10.40;;;6.30;;
6973;SDS011;3527;52.376;8.990;2023-04-28T06:06:48;9.07;;;6.83;;
6973;SDS011;3527;52.376;8.990;2023-04-28T06:09:15;10.50;;;6.37;;
6973;SDS011;3527;52.376;8.990;2023-04-28T06:11:42;9.03;;;6.40;;
6973;SDS011;3527;52.376;8.990;2023-04-28T06:14:08;10.90;;;6.30;;
6973;SDS011;3527;52.376;8.990;2023-04-28T06:16:35;9.87;;;6.30;;
6973;SDS011;3527;52.376;8.990;2023-04-28T06:19:02;11.23;;;6.43;;
6973;SDS011;3527;52.376;8.990;2023-04-28T06:21:29;8.13;;;6.17;;
6973;SDS011;3527;52.376;8.990;2023-04-28T06:23:57;12.60;;;6.47;;
6973;SDS011;3527;52.376;8.990;2023-04-28T06:26:24;9.07;;;6.00;;
6973;SDS011;3527;52.376;8.990;2023-04-28T06:28:51;10.53;;;6.17;;
6973;SDS011;3527;52.376;8.990;2023-04-28T06:31:17;10.20;;;6.27;;
6973;SDS011;3527;52.376;8.990;2023-04-28T06:33:44;9.20;;;6.10;;
6973;SDS011;3527;52.376;8.990;2023-04-28T06:36:11;9.23;;;5.97;;
6973;SDS011;3527;52.376;8.990;2023-04-28T06:38:44;10.47;;;6.10;;
6973;SDS011;3527;52.376;8.990;2023-04-28T06:41:11;13.13;;;6.23;;
6973;SDS011;3527;52.376;8.990;2023-04-28T06:43:39;11.60;;;6.73;;
6973;SDS011;3527;52.376;8.990;2023-04-28T06:46:06;8.30;;;6.53;;
6973;SDS011;3527;52.376;8.990;2023-04-28T06:48:33;8.37;;;6.50;;
6973;SDS011;3527;52.376;8.990;2023-04-28T06:51:00;9.40;;;6.60;;
6973;SDS011;3527;52.376;8.990;2023-04-28T06:53:27;10.50;;;6.63;;
6973;SDS011;3527;52.376;8.990;2023-04-28T06:55:54;9.90;;;6.50;;
6973;SDS011;3527;52.376;8.990;2023-04-28T06:58:21;10.93;;;7.23;;
6973;SDS011;3527;52.376;8.990;2023-04-28T07:00:48;8.53;;;6.40;;
6973;SDS011;3527;52.376;8.990;2023-04-28T07:03:15;9.73;;;6.60;;
6973;SDS011;3527;52.376;8.990;2023-04-28T07:05:42;9.87;;;6.37;;
6973;SDS011;3527;52.376;8.990;2023-04-28T07:08:09;11.53;;;6.90;;
6973;SDS011;3527;52.376;8.990;2023-04-28T07:10:35;9.50;;;7.00;;
6973;SDS011;3527;52.376;8.990;2023-04-28T07:13:02;10.10;;;6.23;;
6973;SDS011;3527;52.376;8.990;2023-04-28T07:15:29;10.77;;;6.40;;
6973;SDS011;3527;52.376;8.990;2023-04-28T07:17:57;8.80;;;5.97;;
6973;SDS011;3527;52.376;8.990;2023-04-28T07:20:23;9.53;;;6.77;;
6973;SDS011;3527;52.376;8.990;2023-04-28T07:22:50;8.80;;;6.63;;
6973;SDS011;3527;52.376;8.990;2023-04-28T07:25:17;10.77;;;6.93;;
6973;SDS011;3527;52.376;8.990;2023-04-28T07:27:44;9.97;;;6.93;;
6973;SDS011;3527;52.376;8.990;2023-04-28T07:30:13;12.00;;;6.80;;
6973;SDS011;3527;52.376;8.990;2023-04-28T07:32:53;9.90;;;6.00;;
6973;SDS011;3527;52.376;8.990;2023-04-28T07:35:20;12.23;;;7.10;;
6973;SDS011;3527;52.376;8.990;2023-04-28T07:37:47;10.40;;;6.80;;
6973;SDS011;3527;52.376;8.990;2023-04-28T07:40:14;8.27;;;6.10;;
6973;SDS011;3527;52.376;8.990;2023-04-28T07:42:41;10.17;;;6.60;;
6973;SDS011;3527;52.376;8.990;2023-04-28T07:45:08;12.40;;;7.03;;
6973;SDS011;3527;52.376;8.990;2023-04-28T07:47:36;10.20;;;6.80;;
6973;SDS011;3527;52.376;8.990;2023-04-28T07:50:03;8.97;;;6.40;;
6973;SDS011;3527;52.376;8.990;2023-04-28T07:52:32;12.67;;;6.20;;
6973;SDS011;3527;52.376;8.990;2023-04-28T07:54:59;9.83;;;6.73;;
6973;SDS011;3527;52.376;8.990;2023-04-28T07:57:27;9.50;;;7.07;;
6973;SDS011;3527;52.376;8.990;2023-04-28T07:59:54;11.97;;;6.70;;
6973;SDS011;3527;52.376;8.990;2023-04-28T08:02:21;9.30;;;6.23;;
6973;SDS011;3527;52.376;8.990;2023-04-28T08:04:48;8.80;;;6.83;;
6973;SDS011;3527;52.376;8.990;2023-04-28T08:07:15;10.07;;;7.10;;
6973;SDS011;3527;52.376;8.990;2023-04-28T08:09:42;13.10;;;6.73;;
6973;SDS011;3527;52.376;8.990;2023-04-28T08:12:13;9.50;;;6.93;;
6973;SDS011;3527;52.376;8.990;2023-04-28T08:14:40;9.40;;;7.53;;
6973;SDS011;3527;52.376;8.990;2023-04-28T08:17:07;12.03;;;7.23;;
6973;SDS011;3527;52.376;8.990;2023-04-28T08:19:37;9.23;;;6.87;;
6973;SDS011;3527;52.376;8.990;2023-04-28T08:22:04;9.77;;;7.10;;
6973;SDS011;3527;52.376;8.990;2023-04-28T08:24:32;12.67;;;6.97;;
6973;SDS011;3527;52.376;8.990;2023-04-28T08:27:00;10.67;;;6.93;;
6973;SDS011;3527;52.376;8.990;2023-04-28T08:29:31;9.33;;;6.60;;
6973;SDS011;3527;52.376;8.990;2023-04-28T08:31:58;10.10;;;6.83;;
6973;SDS011;3527;52.376;8.990;2023-04-28T08:34:26;9.67;;;7.10;;
6973;SDS011;3527;52.376;8.990;2023-04-28T08:36:54;10.70;;;6.63;;
6973;SDS011;3527;52.376;8.990;2023-04-28T08:39:21;11.10;;;7.07;;
6973;SDS011;3527;52.376;8.990;2023-04-28T08:41:49;12.07;;;6.93;;
6973;SDS011;3527;52.376;8.990;2023-04-28T08:44:16;11.40;;;7.50;;
6973;SDS011;3527;52.376;8.990;2023-04-28T08:46:45;9.87;;;7.40;;
6973;SDS011;3527;52.376;8.990;2023-04-28T08:49:16;10.67;;;7.70;;
6973;SDS011;3527;52.376;8.990;2023-04-28T08:51:45;10.40;;;7.07;;
6973;SDS011;3527;52.376;8.990;2023-04-28T08:54:16;9.70;;;7.33;;
6973;SDS011;3527;52.376;8.990;2023-04-28T08:56:52;13.60;;;7.07;;
6973;SDS011;3527;52.376;8.990;2023-04-28T08:59:19;10.90;;;7.43;;
6973;SDS011;3527;52.376;8.990;2023-04-28T09:01:50;13.20;;;7.47;;
6973;SDS011;3527;52.376;8.990;2023-04-28T09:04:17;10.53;;;6.80;;
6973;SDS011;3527;52.376;8.990;2023-04-28T09:06:45;14.50;;;8.17;;
6973;SDS011;3527;52.376;8.990;2023-04-28T09:09:25;12.43;;;7.57;;
6973;SDS011;3527;52.376;8.990;2023-04-28T09:12:01;12.00;;;8.07;;
6973;SDS011;3527;52.376;8.990;2023-04-28T09:14:30;14.97;;;8.53;;
6973;SDS011;3527;52.376;8.990;2023-04-28T09:17:01;12.97;;;7.30;;
6973;SDS011;3527;52.376;8.990;2023-04-28T09:19:35;9.87;;;7.70;;
6973;SDS011;3527;52.376;8.990;2023-04-28T09:22:03;13.17;;;8.27;;
6973;SDS011;3527;52.376;8.990;2023-04-28T09:24:51;9.87;;;7.97;;
6973;SDS011;3527;52.376;8.990;2023-04-28T09:27:25;11.83;;;7.40;;
6973;SDS011;3527;52.376;8.990;2023-04-28T09:29:53;12.27;;;7.50;;
6973;SDS011;3527;52.376;8.990;2023-04-28T09:32:21;11.10;;;7.97;;
6973;SDS011;3527;52.376;8.990;2023-04-28T09:34:50;11.27;;;8.27;;
6973;SDS011;3527;52.376;8.990;2023-04-28T09:37:18;10.83;;;7.93;;
6973;SDS011;3527;52.376;8.990;2023-04-28T09:39:47;13.73;;;8.10;;
6973;SDS011;3527;52.376;8.990;2023-04-28T09:42:35;13.67;;;8.40;;
6973;SDS011;3527;52.376;8.990;2023-04-28T09:45:03;11.47;;;7.57;;
6973;SDS011;3527;52.376;8.990;2023-04-28T09:47:31;12.03;;;7.90;;
6973;SDS011;3527;52.376;8.990;2023-04-28T09:50:04;17.10;;;8.80;;
6973;SDS011;3527;52.376;8.990;2023-04-28T09:52:34;11.57;;;8.33;;
6973;SDS011;3527;52.376;8.990;2023-04-28T09:55:02;13.43;;;8.43;;
6973;SDS011;3527;52.376;8.990;2023-04-28T09:57:34;11.50;;;8.97;;
6973;SDS011;3527;52.376;8.990;2023-04-28T10:00:02;17.33;;;9.00;;
6973;SDS011;3527;52.376;8.990;2023-04-28T10:02:35;12.70;;;8.63;;
6973;SDS011;3527;52.376;8.990;2023-04-28T10:05:06;12.80;;;7.97;;
6973;SDS011;3527;52.376;8.990;2023-04-28T10:07:36;10.83;;;7.93;;
6973;SDS011;3527;52.376;8.990;2023-04-28T10:10:03;12.27;;;8.87;;
6973;SDS011;3527;52.376;8.990;2023-04-28T10:12:31;13.20;;;7.93;;
6973;SDS011;3527;52.376;8.990;2023-04-28T10:14:58;13.27;;;8.47;;
6973;SDS011;3527;52.376;8.990;2023-04-28T10:17:25;11.67;;;9.60;;
6973;SDS011;3527;52.376;8.990;2023-04-28T10:19:55;13.27;;;9.00;;
6973;SDS011;3527;52.376;8.990;2023-04-28T10:27:37;12.00;;;8.33;;
6973;SDS011;3527;52.376;8.990;2023-04-28T10:30:13;14.60;;;8.40;;
6973;SDS011;3527;52.376;8.990;2023-04-28T10:38:11;11.63;;;8.37;;
6973;SDS011;3527;52.376;8.990;2023-04-28T10:40:42;12.47;;;7.87;;
6973;SDS011;3527;52.376;8.990;2023-04-28T10:43:10;12.57;;;8.83;;
6973;SDS011;3527;52.376;8.990;2023-04-28T10:48:15;9.47;;;8.07;;
6973;SDS011;3527;52.376;8.990;2023-04-28T10:56:22;9.10;;;7.83;;
6973;SDS011;3527;52.376;8.990;2023-04-28T10:58:56;11.67;;;7.43;;
6973;SDS011;3527;52.376;8.990;2023-04-28T11:01:27;12.13;;;9.13;;
6973;SDS011;3527;52.376;8.990;2023-04-28T11:03:58;13.33;;;8.47;;
6973;SDS011;3527;52.376;8.990;2023-04-28T11:06:29;11.73;;;9.03;;
6973;SDS011;3527;52.376;8.990;2023-04-28T11:19:46;12.43;;;8.70;;
6973;SDS011;3527;52.376;8.990;2023-04-28T11:22:19;10.27;;;8.90;;
6973;SDS011;3527;52.376;8.990;2023-04-28T11:24:55;10.90;;;8.77;;
6973;SDS011;3527;52.376;8.990;2023-04-28T11:27:23;11.13;;;8.80;;
6973;SDS011;3527;52.376;8.990;2023-04-28T11:29:51;13.83;;;8.90;;
6973;SDS011;3527;52.376;8.990;2023-04-28T11:32:29;13.93;;;9.27;;
6973;SDS011;3527;52.376;8.990;2023-04-28T11:34:58;14.40;;;9.30;;
6973;SDS011;3527;52.376;8.990;2023-04-28T11:37:26;14.70;;;9.17;;
6973;SDS011;3527;52.376;8.990;2023-04-28T11:39:53;13.47;;;9.30;;
6973;SDS011;3527;52.376;8.990;2023-04-28T11:42:20;12.30;;;8.93;;
6973;SDS011;3527;52.376;8.990;2023-04-28T11:44:51;14.10;;;10.13;;
6973;SDS011;3527;52.376;8.990;2023-04-28T11:49:56;13.10;;;9.53;;
6973;SDS011;3527;52.376;8.990;2023-04-28T11:52:24;11.80;;;9.80;;
6973;SDS011;3527;52.376;8.990;2023-04-28T11:54:53;14.37;;;9.63;;
6973;SDS011;3527;52.376;8.990;2023-04-28T11:57:21;11.53;;;8.90;;
6973;SDS011;3527;52.376;8.990;2023-04-28T11:59:48;14.33;;;9.50;;
6973;SDS011;3527;52.376;8.990;2023-04-28T12:02:23;14.47;;;9.47;;
6973;SDS011;3527;52.376;8.990;2023-04-28T12:04:53;14.20;;;9.87;;
6973;SDS011;3527;52.376;8.990;2023-04-28T12:07:20;15.67;;;9.90;;
6973;SDS011;3527;52.376;8.990;2023-04-28T12:09:48;13.53;;;9.03;;
6973;SDS011;3527;52.376;8.990;2023-04-28T12:12:37;11.37;;;9.37;;
6973;SDS011;3527;52.376;8.990;2023-04-28T12:15:18;13.63;;;9.33;;
6973;SDS011;3527;52.376;8.990;2023-04-28T12:17:47;14.30;;;9.33;;
6973;SDS011;3527;52.376;8.990;2023-04-28T12:20:35;14.13;;;10.23;;
6973;SDS011;3527;52.376;8.990;2023-04-28T12:23:04;12.17;;;9.30;;
6973;SDS011;3527;52.376;8.990;2023-04-28T12:25:31;11.50;;;8.83;;
6973;SDS011;3527;52.376;8.990;2023-04-28T12:28:01;10.50;;;8.97;;
6973;SDS011;3527;52.376;8.990;2023-04-28T12:30:30;10.53;;;9.07;;
6973;SDS011;3527;52.376;8.990;2023-04-28T12:32:59;10.20;;;8.50;;
6973;SDS011;3527;52.376;8.990;2023-04-28T12:35:27;11.53;;;8.37;;
6973;SDS011;3527;52.376;8.990;2023-04-28T12:37:55;11.50;;;8.17;;
6973;SDS011;3527;52.376;8.990;2023-04-28T12:40:24;10.10;;;8.20;;
6973;SDS011;3527;52.376;8.990;2023-04-28T12:42:52;12.90;;;8.30;;
6973;SDS011;3527;52.376;8.990;2023-04-28T12:45:20;10.13;;;8.77;;
6973;SDS011;3527;52.376;8.990;2023-04-28T12:47:47;12.37;;;8.67;;
6973;SDS011;3527;52.376;8.990;2023-04-28T12:50:14;9.30;;;8.10;;
6973;SDS011;3527;52.376;8.990;2023-04-28T12:52:42;9.80;;;7.53;;
6973;SDS011;3527;52.376;8.990;2023-04-28T12:55:09;12.23;;;8.20;;
6973;SDS011;3527;52.376;8.990;2023-04-28T12:57:36;13.23;;;7.97;;
6973;SDS011;3527;52.376;8.990;2023-04-28T13:00:05;9.97;;;7.23;;
6973;SDS011;3527;52.376;8.990;2023-04-28T13:02:33;9.70;;;7.40;;
6973;SDS011;3527;52.376;8.990;2023-04-28T13:05:01;13.57;;;8.10;;
6973;SDS011;3527;52.376;8.990;2023-04-28T13:07:28;8.70;;;7.03;;
6973;SDS011;3527;52.376;8.990;2023-04-28T13:09:56;8.13;;;6.97;;
6973;SDS011;3527;52.376;8.990;2023-04-28T13:12:24;12.13;;;6.97;;
6973;SDS011;3527;52.376;8.990;2023-04-28T13:14:52;11.20;;;8.17;;
6973;SDS011;3527;52.376;8.990;2023-04-28T13:17:19;9.73;;;8.13;;
6973;SDS011;3527;52.376;8.990;2023-04-28T13:19:47;9.40;;;7.37;;
6973;SDS011;3527;52.376;8.990;2023-04-28T13:22:14;9.43;;;7.73;;
6973;SDS011;3527;52.376;8.990;2023-04-28T13:24:41;9.30;;;7.30;;
6973;SDS011;3527;52.376;8.990;2023-04-28T13:27:09;10.13;;;7.57;;
6973;SDS011;3527;52.376;8.990;2023-04-28T13:29:37;11.03;;;7.43;;
6973;SDS011;3527;52.376;8.990;2023-04-28T13:32:04;11.20;;;7.50;;
6973;SDS011;3527;52.376;8.990;2023-04-28T13:34:32;9.63;;;7.90;;
6973;SDS011;3527;52.376;8.990;2023-04-28T13:37:00;11.97;;;7.97;;
6973;SDS011;3527;52.376;8.990;2023-04-28T13:39:26;10.60;;;8.57;;
6973;SDS011;3527;52.376;8.990;2023-04-28T13:41:53;9.20;;;8.23;;
6973;SDS011;3527;52.376;8.990;2023-04-28T13:44:21;10.70;;;8.63;;
6973;SDS011;3527;52.376;8.990;2023-04-28T13:46:48;11.57;;;8.27;;
6973;SDS011;3527;52.376;8.990;2023-04-28T13:49:15;9.93;;;7.60;;
6973;SDS011;3527;52.376;8.990;2023-04-28T13:51:42;10.17;;;8.00;;
6973;SDS011;3527;52.376;8.990;2023-04-28T13:54:11;11.77;;;8.27;;
6973;SDS011;3527;52.376;8.990;2023-04-28T13:56:38;9.80;;;8.03;;
6973;SDS011;3527;52.376;8.990;2023-04-28T13:59:06;11.60;;;7.90;;
6973;SDS011;3527;52.376;8.990;2023-04-28T14:01:33;9.80;;;8.67;;
6973;SDS011;3527;52.376;8.990;2023-04-28T14:04:01;12.73;;;8.97;;
6973;SDS011;3527;52.376;8.990;2023-04-28T14:06:29;11.67;;;9.20;;
6973;SDS011;3527;52.376;8.990;2023-04-28T14:08:59;21.33;;;8.87;;
6973;SDS011;3527;52.376;8.990;2023-04-28T14:11:26;10.73;;;8.40;;
6973;SDS011;3527;52.376;8.990;2023-04-28T14:13:54;10.60;;;8.50;;
6973;SDS011;3527;52.376;8.990;2023-04-28T14:16:20;12.10;;;9.20;;
6973;SDS011;3527;52.376;8.990;2023-04-28T14:18:47;9.97;;;8.07;;
6973;SDS011;3527;52.376;8.990;2023-04-28T14:21:15;12.40;;;8.40;;
6973;SDS011;3527;52.376;8.990;2023-04-28T14:23:41;12.83;;;9.40;;
6973;SDS011;3527;52.376;8.990;2023-04-28T14:26:08;13.17;;;8.73;;
6973;SDS011;3527;52.376;8.990;2023-04-28T14:28:35;11.63;;;8.80;;
6973;SDS011;3527;52.376;8.990;2023-04-28T14:31:03;11.83;;;8.90;;
6973;SDS011;3527;52.376;8.990;2023-04-28T14:33:34;11.20;;;8.60;;
6973;SDS011;3527;52.376;8.990;2023-04-28T14:36:02;11.73;;;9.00;;
6973;SDS011;3527;52.376;8.990;2023-04-28T14:38:30;11.43;;;8.17;;
6973;SDS011;3527;52.376;8.990;2023-04-28T14:40:57;14.13;;;9.00;;
6973;SDS011;3527;52.376;8.990;2023-04-28T14:43:23;11.17;;;9.57;;
6973;SDS011;3527;52.376;8.990;2023-04-28T14:45:51;11.80;;;9.63;;
6973;SDS011;3527;52.376;8.990;2023-04-28T14:48:18;11.13;;;9.90;;
6973;SDS011;3527;52.376;8.990;2023-04-28T14:50:46;10.97;;;8.77;;
6973;SDS011;3527;52.376;8.990;2023-04-28T14:53:13;12.30;;;9.93;;
6973;SDS011;3527;52.376;8.990;2023-04-28T14:55:40;12.37;;;9.87;;
6973;SDS011;3527;52.376;8.990;2023-04-28T14:58:07;13.13;;;9.10;;
6973;SDS011;3527;52.376;8.990;2023-04-28T15:00:34;11.73;;;8.97;;
6973;SDS011;3527;52.376;8.990;2023-04-28T15:03:01;11.97;;;9.27;;
6973;SDS011;3527;52.376;8.990;2023-04-28T15:05:28;14.53;;;9.77;;
6973;SDS011;3527;52.376;8.990;2023-04-28T15:07:55;18.50;;;12.07;;
6973;SDS011;3527;52.376;8.990;2023-04-28T15:10:22;14.20;;;10.00;;
6973;SDS011;3527;52.376;8.990;2023-04-28T15:12:49;14.07;;;11.10;;
6973;SDS011;3527;52.376;8.990;2023-04-28T15:15:16;14.03;;;11.43;;
6973;SDS011;3527;52.376;8.990;2023-04-28T15:17:43;13.30;;;11.23;;
6973;SDS011;3527;52.376;8.990;2023-04-28T15:20:11;16.13;;;11.63;;
6973;SDS011;3527;52.376;8.990;2023-04-28T15:22:37;12.80;;;10.90;;
6973;SDS011;3527;52.376;8.990;2023-04-28T15:25:04;17.23;;;11.23;;
6973;SDS011;3527;52.376;8.990;2023-04-28T15:27:32;14.23;;;12.73;;
6973;SDS011;3527;52.376;8.990;2023-04-28T15:29:59;17.33;;;13.07;;
6973;SDS011;3527;52.376;8.990;2023-04-28T15:32:26;16.33;;;12.43;;
6973;SDS011;3527;52.376;8.990;2023-04-28T15:34:55;15.90;;;12.50;;
6973;SDS011;3527;52.376;8.990;2023-04-28T15:37:42;13.67;;;12.20;;
6973;SDS011;3527;52.376;8.990;2023-04-28T15:40:11;15.97;;;12.30;;
6973;SDS011;3527;52.376;8.990;2023-04-28T15:42:40;15.37;;;12.23;;
6973;SDS011;3527;52.376;8.990;2023-04-28T15:45:19;14.50;;;12.23;;
6973;SDS011;3527;52.376;8.990;2023-04-28T15:47:47;16.87;;;12.63;;